createdAt,value
2022-09-17T00:01:29.680Z,4.07
2022-09-17T00:04:04.594Z,3.77
2022-09-17T00:06:34.710Z,3.43
2022-09-17T00:09:05.208Z,3.53
2022-09-17T00:11:36.370Z,3.77
2022-09-17T00:14:05.703Z,3.37
2022-09-17T00:16:35.551Z,4.17
2022-09-17T00:19:05.678Z,3.40
2022-09-17T00:21:33.855Z,3.63
2022-09-17T00:24:05.695Z,3.43
2022-09-17T00:26:34.715Z,2.87
2022-09-17T00:29:02.935Z,3.37
2022-09-17T00:31:31.833Z,2.40
2022-09-17T00:34:00.668Z,2.97
2022-09-17T00:36:28.731Z,2.67
2022-09-17T00:38:58.880Z,1.83
2022-09-17T00:41:31.194Z,2.63
2022-09-17T00:44:01.317Z,2.30
2022-09-17T00:46:34.469Z,2.40
2022-09-17T00:49:07.315Z,2.23
2022-09-17T00:51:38.216Z,2.37
2022-09-17T00:54:08.822Z,2.17
2022-09-17T00:56:41.085Z,2.17
2022-09-17T00:59:09.573Z,2.17
2022-09-17T01:01:37.883Z,2.43
2022-09-17T01:04:05.991Z,1.93
2022-09-17T01:06:38.245Z,1.93
2022-09-17T01:09:23.490Z,2.33
2022-09-17T01:12:18.374Z,2.20
2022-09-17T01:15:00.241Z,1.33
2022-09-17T01:17:36.356Z,1.80
2022-09-17T01:20:40.186Z,1.67
2022-09-17T01:23:40.482Z,1.67
2022-09-17T01:26:25.277Z,1.50
2022-09-17T01:29:03.247Z,1.77
2022-09-17T01:31:43.282Z,1.80
2022-09-17T01:34:20.247Z,1.77
2022-09-17T01:37:01.813Z,1.83
2022-09-17T01:39:47.099Z,1.90
2022-09-17T01:42:19.696Z,2.00
2022-09-17T01:44:54.777Z,1.50
2022-09-17T01:47:27.350Z,1.77
2022-09-17T01:50:01.043Z,1.73
2022-09-17T01:52:32.670Z,1.60
2022-09-17T01:55:05.922Z,1.80
2022-09-17T01:57:37.849Z,1.80
2022-09-17T02:00:08.449Z,1.80
2022-09-17T02:02:42.630Z,1.60
2022-09-17T02:05:15.822Z,1.90
2022-09-17T02:07:48.356Z,1.37
2022-09-17T02:10:21.092Z,1.80
2022-09-17T02:12:54.271Z,1.40
2022-09-17T02:15:26.917Z,1.37
2022-09-17T02:18:00.501Z,1.67
2022-09-17T02:20:42.281Z,1.50
2022-09-17T02:23:16.533Z,1.30
2022-09-17T02:25:51.452Z,1.20
2022-09-17T02:28:25.751Z,1.20
2022-09-17T02:30:53.680Z,1.40
2022-09-17T02:33:23.507Z,1.13
2022-09-17T02:35:51.549Z,1.40
2022-09-17T02:38:25.585Z,1.33
2022-09-17T02:41:02.095Z,1.50
2022-09-17T02:43:36.845Z,1.20
2022-09-17T02:46:17.486Z,1.47
2022-09-17T02:49:05.585Z,1.60
2022-09-17T02:51:41.234Z,1.70
2022-09-17T02:54:19.126Z,1.20
2022-09-17T02:56:55.426Z,1.00
2022-09-17T02:59:26.451Z,1.40
2022-09-17T03:01:59.633Z,1.13
2022-09-17T03:04:30.500Z,1.63
2022-09-17T03:06:59.476Z,1.00
2022-09-17T03:09:27.647Z,1.30
2022-09-17T03:11:55.727Z,1.00
2022-09-17T03:14:23.579Z,1.13
2022-09-17T03:16:51.533Z,1.13
2022-09-17T03:19:19.501Z,3.50
2022-09-17T03:21:48.787Z,1.20
2022-09-17T03:24:16.677Z,1.50
2022-09-17T03:26:44.889Z,1.27
2022-09-17T03:29:12.744Z,1.47
2022-09-17T03:31:40.916Z,1.00
2022-09-17T03:34:09.013Z,1.13
2022-09-17T03:36:36.927Z,1.33
2022-09-17T03:39:06.424Z,1.20
2022-09-17T03:41:34.431Z,1.70
2022-09-17T03:44:02.872Z,1.47
2022-09-17T03:46:30.884Z,1.43
2022-09-17T03:48:58.809Z,1.40
2022-09-17T03:51:26.832Z,1.10
2022-09-17T03:53:54.810Z,1.30
2022-09-17T03:56:24.120Z,1.50
2022-09-17T03:58:52.106Z,1.40
2022-09-17T04:01:19.951Z,1.30
2022-09-17T04:03:47.945Z,1.50
2022-09-17T04:06:15.798Z,1.37
2022-09-17T04:08:44.199Z,1.37
2022-09-17T04:11:12.312Z,1.47
2022-09-17T04:13:41.457Z,1.23
2022-09-17T04:16:13.486Z,1.80
2022-09-17T04:18:41.455Z,1.70
2022-09-17T04:21:09.435Z,2.00
2022-09-17T04:23:37.293Z,1.70
2022-09-17T04:26:05.723Z,1.67
2022-09-17T04:28:33.841Z,1.67
2022-09-17T04:31:03.222Z,1.97
2022-09-17T04:33:31.280Z,1.77
2022-09-17T04:35:59.151Z,1.87
2022-09-17T04:38:27.206Z,1.80
2022-09-17T04:40:57.241Z,1.47
2022-09-17T04:43:25.331Z,1.50
2022-09-17T04:45:54.086Z,1.80
2022-09-17T04:48:23.334Z,2.13
2022-09-17T04:50:51.221Z,2.00
2022-09-17T04:53:19.333Z,1.90
2022-09-17T04:55:47.196Z,1.60
2022-09-17T04:58:15.219Z,3.27
2022-09-17T05:00:43.441Z,2.40
2022-09-17T05:03:11.513Z,2.00
2022-09-17T05:05:40.850Z,2.10
2022-09-17T05:08:09.411Z,2.23
2022-09-17T05:10:37.463Z,2.20
2022-09-17T05:13:05.352Z,2.00
2022-09-17T05:15:33.278Z,1.90
2022-09-17T05:18:01.190Z,1.70
2022-09-17T05:20:29.083Z,1.80
2022-09-17T05:22:58.402Z,2.07
2022-09-17T05:25:26.332Z,1.97
2022-09-17T05:27:55.036Z,1.50
2022-09-17T05:30:23.117Z,1.70
2022-09-17T05:32:59.324Z,1.90
2022-09-17T05:35:27.207Z,1.47
2022-09-17T05:37:59.856Z,1.47
2022-09-17T05:40:28.304Z,1.80
2022-09-17T05:43:00.169Z,1.50
2022-09-17T05:45:28.224Z,1.30
2022-09-17T05:47:57.491Z,1.53
2022-09-17T05:50:26.187Z,1.60
2022-09-17T05:52:55.037Z,1.67
2022-09-17T05:55:25.432Z,1.80
2022-09-17T05:57:53.350Z,1.67
2022-09-17T06:00:21.655Z,1.70
2022-09-17T06:02:55.913Z,1.70
2022-09-17T06:05:23.985Z,1.77
2022-09-17T06:07:52.188Z,2.80
2022-09-17T06:10:20.098Z,1.90
2022-09-17T06:12:49.448Z,1.70
2022-09-17T06:15:17.442Z,1.57
2022-09-17T06:17:45.339Z,1.30
2022-09-17T06:20:13.270Z,1.80
2022-09-17T06:22:41.128Z,1.50
2022-09-17T06:25:09.849Z,1.20
2022-09-17T06:27:39.346Z,1.60
2022-09-17T06:30:09.500Z,1.30
2022-09-17T06:32:37.461Z,1.50
2022-09-17T06:35:05.788Z,1.70
2022-09-17T06:37:36.205Z,1.40
2022-09-17T06:40:04.750Z,1.50
2022-09-17T06:42:32.708Z,1.20
2022-09-17T06:45:05.544Z,1.50
2022-09-17T06:47:37.281Z,1.60
2022-09-17T06:50:05.785Z,1.30
2022-09-17T06:52:33.895Z,2.13
2022-09-17T06:55:01.844Z,1.93
2022-09-17T06:57:29.706Z,1.90
2022-09-17T06:59:57.570Z,2.13
2022-09-17T07:02:25.778Z,1.50
2022-09-17T07:04:55.307Z,1.60
2022-09-17T07:07:23.304Z,1.37
2022-09-17T07:09:51.187Z,1.50
2022-09-17T07:12:19.168Z,1.30
2022-09-17T07:14:47.920Z,1.23
2022-09-17T07:17:16.327Z,1.13
2022-09-17T07:19:44.308Z,1.20
2022-09-17T07:22:14.121Z,1.30
2022-09-17T07:24:42.077Z,1.20
2022-09-17T07:27:09.906Z,1.40
2022-09-17T07:29:38.003Z,1.50
2022-09-17T07:32:06.098Z,1.00
2022-09-17T07:34:34.010Z,1.47
2022-09-17T07:37:02.326Z,1.40
2022-09-17T07:39:31.922Z,1.17
2022-09-17T07:41:59.898Z,1.53
2022-09-17T07:44:28.645Z,1.00
2022-09-17T07:46:56.673Z,0.90
2022-09-17T07:49:25.099Z,1.20
2022-09-17T07:51:54.777Z,1.20
2022-09-17T07:54:22.945Z,1.40
2022-09-17T07:56:52.266Z,1.20
2022-09-17T07:59:21.155Z,1.13
2022-09-17T08:01:49.180Z,1.40
2022-09-17T08:04:17.299Z,0.93
2022-09-17T08:06:48.279Z,1.20
2022-09-17T08:09:17.747Z,1.20
2022-09-17T08:12:01.391Z,1.50
2022-09-17T08:14:30.766Z,0.70
2022-09-17T08:16:58.703Z,1.47
2022-09-17T08:19:29.745Z,1.10
2022-09-17T08:21:58.284Z,1.10
2022-09-17T08:24:26.165Z,0.97
2022-09-17T08:26:54.610Z,0.90
2022-09-17T08:29:22.533Z,1.10
2022-09-17T08:31:52.099Z,1.90
2022-09-17T08:34:20.426Z,1.80
2022-09-17T08:36:48.359Z,1.30
2022-09-17T08:39:16.388Z,1.10
2022-09-17T08:41:52.411Z,1.30
2022-09-17T08:44:26.361Z,0.80
2022-09-17T08:47:01.775Z,1.60
2022-09-17T08:49:36.184Z,1.10
2022-09-17T08:52:47.246Z,1.17
2022-09-17T08:55:25.482Z,1.13
2022-09-17T08:58:02.919Z,1.33
2022-09-17T09:00:34.754Z,0.93
2022-09-17T09:03:18.683Z,1.30
2022-09-17T09:05:48.830Z,1.50
2022-09-17T09:08:23.703Z,1.33
2022-09-17T09:10:55.563Z,1.10
2022-09-17T09:13:29.181Z,1.60
2022-09-17T09:16:00.442Z,1.40
2022-09-17T09:18:32.167Z,1.20
2022-09-17T09:21:09.230Z,1.07
2022-09-17T09:23:47.551Z,1.63
2022-09-17T09:26:19.511Z,1.53
2022-09-17T09:29:15.811Z,1.37
2022-09-17T09:32:12.379Z,1.20
2022-09-17T09:34:46.661Z,1.30
2022-09-17T09:37:20.138Z,1.50
2022-09-17T09:39:51.456Z,1.77
2022-09-17T09:42:28.350Z,1.60
2022-09-17T09:45:04.801Z,1.40
2022-09-17T09:47:49.247Z,1.57
2022-09-17T09:50:38.571Z,2.20
2022-09-17T09:53:26.079Z,1.57
2022-09-17T09:56:25.869Z,1.33
2022-09-17T09:58:53.873Z,1.63
2022-09-17T10:01:22.549Z,1.43
2022-09-17T10:03:54.025Z,1.33
2022-09-17T10:06:23.438Z,2.27
2022-09-17T10:09:11.164Z,2.20
2022-09-17T10:11:39.612Z,2.20
2022-09-17T10:14:23.704Z,2.63
2022-09-17T10:16:51.729Z,1.50
2022-09-17T10:19:25.680Z,1.40
2022-09-17T10:21:55.528Z,1.80
2022-09-17T10:24:26.793Z,2.20
2022-09-17T10:27:02.612Z,2.13
2022-09-17T10:29:31.404Z,2.10
2022-09-17T10:32:00.605Z,2.20
2022-09-17T10:34:30.128Z,1.87
2022-09-17T10:36:59.825Z,1.90
2022-09-17T10:39:34.061Z,1.77
2022-09-17T10:42:03.630Z,3.10
2022-09-17T10:44:33.127Z,1.70
2022-09-17T10:47:07.077Z,1.80
2022-09-17T10:49:42.701Z,2.00
2022-09-17T10:52:19.216Z,2.40
2022-09-17T10:55:20.233Z,1.83
2022-09-17T10:58:04.985Z,2.47
2022-09-17T11:00:45.345Z,1.87
2022-09-17T11:03:56.180Z,2.20
2022-09-17T11:06:53.491Z,2.20
2022-09-17T11:09:31.482Z,1.70
2022-09-17T11:12:17.092Z,4.63
2022-09-17T11:14:51.970Z,2.40
2022-09-17T11:17:40.713Z,1.37
2022-09-17T11:20:21.376Z,2.13
2022-09-17T11:22:59.511Z,1.70
2022-09-17T11:25:41.047Z,1.90
2022-09-17T11:28:23.454Z,1.30
2022-09-17T11:31:07.162Z,1.23
2022-09-17T11:33:47.867Z,1.40
2022-09-17T11:36:21.854Z,1.93
2022-09-17T11:38:51.930Z,1.77
2022-09-17T11:41:25.015Z,1.60
2022-09-17T11:44:04.532Z,2.13
2022-09-17T11:46:37.441Z,2.13
2022-09-17T11:49:10.294Z,1.37
2022-09-17T11:51:41.746Z,1.90
2022-09-17T11:54:20.402Z,2.10
2022-09-17T11:56:54.435Z,1.90
2022-09-17T11:59:30.873Z,2.67
2022-09-17T12:02:05.250Z,1.40
2022-09-17T12:04:45.735Z,2.20
2022-09-17T12:07:25.862Z,1.60
2022-09-17T12:09:58.288Z,1.70
2022-09-17T12:12:49.181Z,2.00
2022-09-17T12:15:23.076Z,1.27
2022-09-17T12:18:20.693Z,1.60
2022-09-17T12:20:49.690Z,1.50
2022-09-17T12:23:20.908Z,1.70
2022-09-17T12:25:58.041Z,1.60
2022-09-17T12:28:34.746Z,1.37
2022-09-17T12:31:08.309Z,1.53
2022-09-17T12:33:42.019Z,2.20
2022-09-17T12:36:32.003Z,1.60
2022-09-17T12:39:32.655Z,1.47
2022-09-17T12:42:08.547Z,1.67
2022-09-17T12:45:06.521Z,1.63
2022-09-17T12:48:20.502Z,1.83
2022-09-17T12:51:01.506Z,2.00
2022-09-17T12:53:34.119Z,2.13
2022-09-17T12:56:10.660Z,1.40
2022-09-17T12:58:56.446Z,1.67
2022-09-17T13:01:31.624Z,1.90
2022-09-17T13:04:07.681Z,1.90
2022-09-17T13:07:21.401Z,1.80
2022-09-17T13:10:04.642Z,1.87
2022-09-17T13:12:38.018Z,1.67
2022-09-17T13:15:32.563Z,2.20
2022-09-17T13:18:25.198Z,2.47
2022-09-17T13:21:04.293Z,2.33
2022-09-17T13:23:40.316Z,2.10
2022-09-17T13:26:09.655Z,1.90
2022-09-17T13:28:46.921Z,2.10
2022-09-17T13:31:20.671Z,1.63
2022-09-17T13:34:00.382Z,2.00
2022-09-17T13:36:40.704Z,2.20
2022-09-17T13:39:10.682Z,2.30
2022-09-17T13:41:41.229Z,1.93
2022-09-17T13:44:10.784Z,2.57
2022-09-17T13:46:40.197Z,2.20
2022-09-17T13:49:16.997Z,2.00
2022-09-17T13:51:54.624Z,2.23
2022-09-17T13:54:25.634Z,1.97
2022-09-17T13:57:13.665Z,1.90
2022-09-17T13:59:55.139Z,1.70
2022-09-17T14:02:38.010Z,2.13
2022-09-17T14:05:35.789Z,2.50
2022-09-17T14:08:25.243Z,2.30
2022-09-17T14:10:53.198Z,1.97
2022-09-17T14:13:42.743Z,1.60
2022-09-17T14:16:46.177Z,1.33
2022-09-17T14:19:51.116Z,1.40
2022-09-17T14:22:25.960Z,1.23
2022-09-17T14:24:55.453Z,1.00
2022-09-17T14:27:44.012Z,1.47
2022-09-17T14:30:17.683Z,1.77
2022-09-17T14:32:53.519Z,1.53
2022-09-17T14:35:25.791Z,1.63
2022-09-17T14:38:01.019Z,1.20
2022-09-17T14:40:31.702Z,1.37
2022-09-17T14:43:00.174Z,1.50
2022-09-17T14:45:33.291Z,1.40
2022-09-17T14:48:21.351Z,1.37
2022-09-17T14:50:49.222Z,1.40
2022-09-17T14:53:21.219Z,2.00
2022-09-17T14:55:50.666Z,1.30
2022-09-17T14:58:32.193Z,1.30
2022-09-17T15:01:00.443Z,1.20
2022-09-17T15:03:28.422Z,1.30
2022-09-17T15:05:56.628Z,1.40
2022-09-17T15:08:29.265Z,1.10
2022-09-17T15:11:01.298Z,1.50
2022-09-17T15:13:31.487Z,1.00
2022-09-17T15:16:04.752Z,0.82
2022-09-17T15:18:39.493Z,1.33
2022-09-17T15:21:22.086Z,1.10
2022-09-17T15:23:56.955Z,1.10
2022-09-17T15:26:29.340Z,1.50
2022-09-17T15:28:59.045Z,1.20
2022-09-17T15:31:30.202Z,1.33
2022-09-17T15:34:01.731Z,1.40
2022-09-17T15:36:31.533Z,1.73
2022-09-17T15:39:00.753Z,0.87
2022-09-17T15:41:33.658Z,1.33
2022-09-17T15:44:29.322Z,1.20
2022-09-17T15:47:37.101Z,1.40
2022-09-17T15:50:16.408Z,1.10
2022-09-17T15:52:45.039Z,1.80
2022-09-17T15:55:32.042Z,1.17
2022-09-17T15:58:01.740Z,1.33
2022-09-17T16:00:30.096Z,1.57
2022-09-17T16:02:58.436Z,1.20
2022-09-17T16:05:45.938Z,2.27
2022-09-17T16:08:22.927Z,1.30
2022-09-17T16:10:53.221Z,2.03
2022-09-17T16:13:23.191Z,1.43
2022-09-17T16:15:54.640Z,2.17
2022-09-17T16:18:22.619Z,1.23
2022-09-17T16:20:50.724Z,1.30
2022-09-17T16:23:18.718Z,1.17
2022-09-17T16:25:46.729Z,1.20
2022-09-17T16:28:19.459Z,1.20
2022-09-17T16:30:49.534Z,1.20
2022-09-17T16:33:18.866Z,1.20
2022-09-17T16:35:46.908Z,1.50
2022-09-17T16:38:14.903Z,1.53
2022-09-17T16:40:44.953Z,1.30
2022-09-17T16:43:13.277Z,1.70
2022-09-17T16:45:42.978Z,1.60
2022-09-17T16:48:11.864Z,1.33
2022-09-17T16:50:41.503Z,0.93
2022-09-17T16:53:09.348Z,0.80
2022-09-17T16:55:37.692Z,1.20
2022-09-17T16:58:05.734Z,1.07
2022-09-17T17:00:33.749Z,0.90
2022-09-17T17:03:03.050Z,0.90
2022-09-17T17:05:32.518Z,1.00
2022-09-17T17:08:06.444Z,1.47
2022-09-17T17:10:34.977Z,1.10
2022-09-17T17:13:03.041Z,0.83
2022-09-17T17:15:30.972Z,1.60
2022-09-17T17:17:58.980Z,1.63
2022-09-17T17:20:28.236Z,1.23
2022-09-17T17:22:56.278Z,1.27
2022-09-17T17:25:24.660Z,1.33
2022-09-17T17:27:52.806Z,1.40
2022-09-17T17:30:20.913Z,1.00
2022-09-17T17:32:51.865Z,1.50
2022-09-17T17:35:20.387Z,1.17
2022-09-17T17:37:50.658Z,1.00
2022-09-17T17:40:18.703Z,1.15
2022-09-17T17:42:47.477Z,1.10
2022-09-17T17:45:16.247Z,1.20
2022-09-17T17:47:44.270Z,0.90
2022-09-17T17:50:12.242Z,1.00
2022-09-17T17:52:43.517Z,1.37
2022-09-17T17:55:12.899Z,1.20
2022-09-17T17:57:41.009Z,1.07
2022-09-17T18:00:12.704Z,1.13
2022-09-17T18:02:40.900Z,0.90
2022-09-17T18:05:09.471Z,1.10
2022-09-17T18:07:37.513Z,1.20
2022-09-17T18:10:06.217Z,1.30
2022-09-17T18:12:37.008Z,1.73
2022-09-17T18:15:05.657Z,1.30
2022-09-17T18:17:35.592Z,1.30
2022-09-17T18:20:05.118Z,1.70
2022-09-17T18:22:33.047Z,1.03
2022-09-17T18:25:01.083Z,1.77
2022-09-17T18:27:29.429Z,1.70
2022-09-17T18:29:58.779Z,1.53
2022-09-17T18:32:26.832Z,1.97
2022-09-17T18:34:54.748Z,1.47
2022-09-17T18:37:23.007Z,1.90
2022-09-17T18:39:58.453Z,1.53
2022-09-17T18:42:27.668Z,1.13
2022-09-17T18:44:55.556Z,1.87
2022-09-17T18:47:24.781Z,1.40
2022-09-17T18:49:52.834Z,1.20
2022-09-17T18:52:20.854Z,2.17
2022-09-17T18:54:48.887Z,0.97
2022-09-17T18:57:17.152Z,1.53
2022-09-17T18:59:45.027Z,1.40
2022-09-17T19:02:13.969Z,1.27
2022-09-17T19:04:43.291Z,1.20
2022-09-17T19:07:11.366Z,1.37
2022-09-17T19:09:39.231Z,1.60
2022-09-17T19:12:07.280Z,1.77
2022-09-17T19:14:35.281Z,1.90
2022-09-17T19:17:03.088Z,2.00
2022-09-17T19:19:31.031Z,1.83
2022-09-17T19:22:00.387Z,1.10
2022-09-17T19:24:28.351Z,1.50
2022-09-17T19:26:56.407Z,1.40
2022-09-17T19:29:24.352Z,1.63
2022-09-17T19:31:52.208Z,1.20
2022-09-17T19:34:20.319Z,2.10
2022-09-17T19:36:48.430Z,1.90
2022-09-17T19:39:17.903Z,1.80
2022-09-17T19:41:45.856Z,1.50
2022-09-17T19:44:13.815Z,1.40
2022-09-17T19:46:41.774Z,1.87
2022-09-17T19:49:10.756Z,1.33
2022-09-17T19:51:39.042Z,1.50
2022-09-17T19:54:07.977Z,1.83
2022-09-17T19:56:37.280Z,2.00
2022-09-17T19:59:05.263Z,1.53
2022-09-17T20:01:35.025Z,1.60
2022-09-17T20:04:03.472Z,1.63
2022-09-17T20:06:34.332Z,1.70
2022-09-17T20:09:02.281Z,2.00
2022-09-17T20:11:30.279Z,2.10
2022-09-17T20:14:02.994Z,1.80
2022-09-17T20:16:32.108Z,1.30
2022-09-17T20:19:00.137Z,1.83
2022-09-17T20:21:30.033Z,1.53
2022-09-17T20:23:59.037Z,1.70
2022-09-17T20:26:28.899Z,1.50
2022-09-17T20:28:57.217Z,1.40
2022-09-17T20:31:28.559Z,1.33
2022-09-17T20:33:58.287Z,1.60
2022-09-17T20:36:27.434Z,1.43
2022-09-17T20:39:22.773Z,1.20
2022-09-17T20:41:44.359Z,1.77
2022-09-17T20:44:12.398Z,1.67
2022-09-17T20:46:41.744Z,1.90
2022-09-17T20:49:09.622Z,1.87
2022-09-17T20:51:37.605Z,1.40
2022-09-17T20:54:06.271Z,1.50
2022-09-17T20:56:35.680Z,1.50
2022-09-17T20:59:12.945Z,1.50
2022-09-17T21:01:45.291Z,1.65
2022-09-17T21:04:15.976Z,1.70
2022-09-17T21:06:44.793Z,1.53
2022-09-17T21:09:16.246Z,1.60
2022-09-17T21:11:45.083Z,2.10
2022-09-17T21:14:20.972Z,1.23
2022-09-17T21:16:50.554Z,1.60
2022-09-17T21:19:20.210Z,1.50
2022-09-17T21:21:51.697Z,1.70
2022-09-17T21:24:19.576Z,1.30
2022-09-17T21:26:47.526Z,1.57
2022-09-17T21:29:16.251Z,1.40
2022-09-17T21:31:44.909Z,1.40
2022-09-17T21:34:15.177Z,1.20
2022-09-17T21:36:45.445Z,1.33
2022-09-17T21:39:15.067Z,1.00
2022-09-17T21:41:43.413Z,1.00
2022-09-17T21:44:12.395Z,1.00
2022-09-17T21:46:42.000Z,1.10
2022-09-17T21:49:09.978Z,0.80
2022-09-17T21:51:41.281Z,1.20
2022-09-17T21:54:11.343Z,0.90
2022-09-17T21:56:39.698Z,0.90
2022-09-17T21:59:09.542Z,0.90
2022-09-17T22:01:40.154Z,1.00
2022-09-17T22:04:09.890Z,1.00
2022-09-17T22:06:39.588Z,0.90
2022-09-17T22:09:09.664Z,1.37
2022-09-17T22:11:38.513Z,0.70
2022-09-17T22:14:10.918Z,0.87
2022-09-17T22:16:40.977Z,0.90
2022-09-17T22:19:10.561Z,1.00
2022-09-17T22:21:41.842Z,0.80
2022-09-17T22:24:11.669Z,0.87
2022-09-17T22:26:43.357Z,0.90
2022-09-17T22:29:14.432Z,1.07
2022-09-17T22:31:42.713Z,1.00
2022-09-17T22:34:12.461Z,0.97
2022-09-17T22:36:41.949Z,0.83
2022-09-17T22:39:10.682Z,1.00
2022-09-17T22:41:42.918Z,0.90
2022-09-17T22:44:13.928Z,1.13
2022-09-17T22:46:42.479Z,0.93
2022-09-17T22:49:12.012Z,0.80
2022-09-17T22:51:41.812Z,1.30
2022-09-17T22:54:12.388Z,1.17
2022-09-17T22:56:40.789Z,0.77
2022-09-17T22:59:08.800Z,1.10
2022-09-17T23:01:37.671Z,1.00
2022-09-17T23:04:06.527Z,1.10
2022-09-17T23:06:36.190Z,0.90
2022-09-17T23:09:05.496Z,1.40
2022-09-17T23:11:35.938Z,1.00
2022-09-17T23:14:08.119Z,1.00
2022-09-17T23:16:38.145Z,1.30
2022-09-17T23:19:06.246Z,1.10
2022-09-17T23:21:34.414Z,1.60
2022-09-17T23:24:03.534Z,1.00
2022-09-17T23:26:33.058Z,0.93
2022-09-17T23:29:04.928Z,1.00
2022-09-17T23:31:35.255Z,1.30
2022-09-17T23:34:04.230Z,0.93
2022-09-17T23:36:35.114Z,1.10
2022-09-17T23:39:04.411Z,0.90
2022-09-17T23:41:35.340Z,3.53
2022-09-17T23:44:05.383Z,1.10
2022-09-17T23:46:35.042Z,1.10
2022-09-17T23:49:03.665Z,1.37
2022-09-17T23:51:35.118Z,1.10
2022-09-17T23:54:05.194Z,0.87
2022-09-17T23:56:34.758Z,1.23
2022-09-17T23:59:03.617Z,0.80
